Time;durP1;ratioP1;P1;durP2;ratioP2;P2;SDS_P1;SDS_P2;PMS_P1;PMS_P2;Temp;Humidity;BMP_temperature;BMP_pressure;BME280_temperature;BME280_humidity;BME280_pressure;Samples;Min_cycle;Max_cycle;Signal;HPM_P1;HPM_P2
2021/12/10 00:00:24;;;;;;;25.88;10.80;;;;;;;5.21;76.98;99718.56;5041450;28;20084;-60
2021/12/10 00:02:50;;;;;;;29.92;11.35;;;;;;;5.25;77.40;99718.63;5056309;28;20131;-60
2021/12/10 00:05:19;;;;;;;27.10;11.93;;;;;;;5.31;76.92;99712.69;5042982;28;20046;-60
2021/12/10 00:07:45;;;;;;;30.38;12.50;;;;;;;5.17;77.04;99712.50;5043204;28;20039;-60
2021/12/10 00:10:15;;;;;;;31.23;12.00;;;;;;;5.39;76.30;99707.66;5034695;28;20042;-59
2021/12/10 00:12:47;;;;;;;23.25;11.68;;;;;;;5.32;76.54;99699.81;5046986;28;20032;-60
2021/12/10 00:15:13;;;;;;;29.38;11.95;;;;;;;5.40;76.38;99702.50;5053642;28;20040;-59
2021/12/10 00:17:38;;;;;;;26.20;11.73;;;;;;;5.42;75.95;99689.63;5046091;28;20763;-60
2021/12/10 00:20:07;;;;;;;29.60;12.50;;;;;;;5.40;76.11;99683.56;5054851;28;20044;-60
2021/12/10 00:22:41;;;;;;;29.95;12.25;;;;;;;5.29;75.96;99679.09;5051272;28;20028;-60
2021/12/10 00:25:13;;;;;;;26.50;12.43;;;;;;;5.35;75.79;99678.31;5050116;28;20036;-59
2021/12/10 00:27:40;;;;;;;29.58;13.23;;;;;;;5.23;75.68;99668.66;5046891;28;20083;-60
2021/12/10 00:30:11;;;;;;;28.65;12.65;;;;;;;5.29;75.57;99670.47;5037803;28;20135;-60
2021/12/10 00:32:44;;;;;;;27.52;12.15;;;;;;;5.20;76.24;99652.22;5050694;28;20533;-59
2021/12/10 00:35:17;;;;;;;29.70;12.93;;;;;;;5.19;76.50;99653.94;5043522;28;20256;-61
2021/12/10 00:37:42;;;;;;;26.38;12.48;;;;;;;5.27;76.05;99643.72;5045854;28;20037;-60
2021/12/10 00:40:11;;;;;;;37.08;13.48;;;;;;;5.31;76.23;99636.03;5030671;28;20036;-59
2021/12/10 00:42:37;;;;;;;35.05;13.55;;;;;;;5.23;75.89;99634.22;5058391;28;20040;-59
2021/12/10 00:45:06;;;;;;;27.25;13.90;;;;;;;5.25;75.78;99630.78;5047955;28;20306;-60
2021/12/10 00:47:31;;;;;;;31.58;14.48;;;;;;;5.23;76.02;99626.47;5044020;28;20048;-60
2021/12/10 00:49:57;;;;;;;26.85;13.77;;;;;;;5.21;75.99;99621.25;5052616;28;20071;-60
2021/12/10 00:52:23;;;;;;;34.10;15.10;;;;;;;5.28;75.99;99606.72;5061214;28;20278;-60
2021/12/10 00:54:49;;;;;;;28.80;14.35;;;;;;;5.45;75.28;99602.66;5048986;28;20036;-61
2021/12/10 00:57:15;;;;;;;30.65;14.95;;;;;;;5.36;75.55;99612.00;5052376;28;20048;-60
2021/12/10 00:59:42;;;;;;;27.25;14.02;;;;;;;5.41;75.58;99587.94;5046475;28;20119;-60
2021/12/10 01:02:11;;;;;;;29.33;13.88;;;;;;;5.28;75.52;99584.34;5050537;28;20132;-61
2021/12/10 01:04:41;;;;;;;28.77;13.80;;;;;;;5.25;75.29;99584.28;5052910;28;20040;-60
2021/12/10 01:07:11;;;;;;;30.25;14.05;;;;;;;5.42;75.02;99570.72;5053920;28;20163;-60
2021/12/10 01:09:41;;;;;;;27.80;14.02;;;;;;;5.24;74.93;99579.09;5044276;28;20044;-60
2021/12/10 01:12:34;;;;;;;29.77;13.52;;;;;;;5.25;75.33;99580.81;5053880;28;20063;-60
2021/12/10 01:26:25;;;;;;;28.35;13.20;;;;;;;4.95;75.61;99534.75;5046641;28;20437;-60
2021/12/10 01:28:57;;;;;;;24.92;12.60;;;;;;;5.02;75.59;99535.72;5056176;28;20247;-60
2021/12/10 01:31:22;;;;;;;24.80;12.25;;;;;;;5.04;75.63;99532.31;5045529;28;20068;-60
2021/12/10 01:33:49;;;;;;;23.10;12.25;;;;;;;4.98;75.84;99531.38;5051646;28;20127;-62
2021/12/10 01:36:15;;;;;;;24.30;11.88;;;;;;;5.10;75.73;99537.56;5058098;28;20035;-60
2021/12/10 01:38:42;;;;;;;25.27;12.65;;;;;;;5.19;74.97;99527.34;5048654;28;20048;-60
2021/12/10 01:41:13;;;;;;;25.85;12.60;;;;;;;4.90;76.09;99523.50;5048816;28;20691;-59
2021/12/10 01:43:40;;;;;;;28.08;12.77;;;;;;;4.88;75.79;99520.88;5030510;28;20356;-60
2021/12/10 01:46:24;;;;;;;24.98;12.90;;;;;;;4.96;75.29;99514.97;5053554;28;20047;-59
2021/12/10 01:48:53;;;;;;;22.73;12.40;;;;;;;4.94;75.27;99511.53;5050131;28;20562;-59
2021/12/10 01:51:22;;;;;;;24.88;12.13;;;;;;;5.07;75.06;99509.09;5056897;28;20071;-59
2021/12/10 01:53:51;;;;;;;28.77;12.65;;;;;;;5.06;75.01;99511.69;5052714;28;20562;-60
2021/12/10 01:56:20;;;;;;;25.75;12.60;;;;;;;4.97;75.35;99496.91;5028811;28;20120;-60
2021/12/10 01:58:46;;;;;;;26.25;12.68;;;;;;;5.06;74.96;99498.78;5053457;28;20139;-60
2021/12/10 02:01:38;;;;;;;24.45;12.00;;;;;;;5.11;74.49;99484.19;5044670;28;20040;-59
2021/12/10 02:04:06;;;;;;;26.02;12.13;;;;;;;5.05;75.13;99479.81;5054400;28;21366;-61
2021/12/10 02:06:31;;;;;;;23.45;11.70;;;;;;;5.05;74.97;99471.19;5044066;28;20083;-59
2021/12/10 02:08:57;;;;;;;23.17;11.88;;;;;;;5.02;74.67;99460.81;5054474;28;20423;-59
2021/12/10 02:11:22;;;;;;;24.73;11.73;;;;;;;4.97;74.77;99457.31;5045478;28;20050;-61
2021/12/10 02:13:48;;;;;;;27.85;11.73;;;;;;;4.95;75.13;99451.25;5050058;28;20044;-61
2021/12/10 02:16:14;;;;;;;22.85;11.00;;;;;;;5.09;74.82;99449.72;5047972;28;20462;-60
2021/12/10 02:18:40;;;;;;;24.02;10.93;;;;;;;5.10;74.35;99441.13;5035898;28;20148;-61
2021/12/10 02:21:09;;;;;;;23.88;10.93;;;;;;;4.95;75.15;99438.34;5050700;28;20557;-61
2021/12/10 02:23:42;;;;;;;19.13;10.00;;;;;;;4.79;75.25;99440.72;5043159;28;20033;-60
2021/12/10 02:26:11;;;;;;;21.65;10.23;;;;;;;4.86;74.89;99436.53;5038944;28;20039;-60
2021/12/10 02:28:37;;;;;;;22.02;9.93;;;;;;;4.92;74.43;99436.59;5047713;28;20082;-60
2021/12/10 02:31:03;;;;;;;20.55;10.70;;;;;;;5.05;74.80;99425.59;5036268;28;20040;-59
2021/12/10 02:33:29;;;;;;;20.80;9.60;;;;;;;5.01;74.95;99425.50;5043805;28;20134;-60
2021/12/10 02:35:55;;;;;;;21.65;9.73;;;;;;;5.04;75.08;99416.09;5057781;28;20147;-60
2021/12/10 02:38:22;;;;;;;21.40;9.88;;;;;;;5.10;74.63;99413.59;5044872;28;20082;-59
2021/12/10 02:40:49;;;;;;;19.80;9.07;;;;;;;5.13;74.44;99411.03;5050193;28;20055;-59
2021/12/10 02:43:17;;;;;;;18.42;8.93;;;;;;;5.24;74.40;99398.25;5038281;28;20441;-59
2021/12/10 02:45:47;;;;;;;23.90;8.73;;;;;;;5.20;74.45;99399.03;5042365;28;20101;-60
2021/12/10 02:48:13;;;;;;;20.75;8.50;;;;;;;5.37;74.02;99394.91;5046737;28;20123;-59
2021/12/10 02:50:39;;;;;;;17.17;7.68;;;;;;;5.45;73.68;99392.41;5053909;28;20043;-60
2021/12/10 02:53:07;;;;;;;18.50;7.82;;;;;;;5.41;73.39;99388.09;5046712;28;20333;-60
2021/12/10 02:55:33;;;;;;;15.27;7.43;;;;;;;5.43;73.65;99382.06;5050828;28;20635;-59
2021/12/10 02:58:05;;;;;;;16.75;7.53;;;;;;;5.28;73.64;99375.03;5049928;28;20315;-61
2021/12/10 03:00:36;;;;;;;16.75;7.68;;;;;;;5.42;73.34;99367.44;5057141;28;20051;-60
2021/12/10 03:03:02;;;;;;;14.50;7.53;;;;;;;5.53;73.26;99360.63;5048965;28;20515;-59
2021/12/10 03:05:27;;;;;;;17.85;7.40;;;;;;;5.48;73.73;99354.56;5048904;28;20040;-60
2021/12/10 03:07:53;;;;;;;19.30;7.68;;;;;;;5.52;73.40;99358.91;5056422;28;20506;-59
2021/12/10 03:10:26;;;;;;;15.80;6.75;;;;;;;5.60;72.70;99351.22;5056028;28;20734;-61
2021/12/10 03:12:52;;;;;;;17.40;6.90;;;;;;;5.48;73.96;99354.56;5040362;28;20082;-59
2021/12/10 03:15:19;;;;;;;12.77;6.40;;;;;;;5.59;73.59;99350.34;5051211;28;20460;-60
2021/12/10 03:17:45;;;;;;;14.90;6.82;;;;;;;5.39;74.77;99354.47;5049186;28;20634;-60
2021/12/10 03:20:12;;;;;;;16.27;7.00;;;;;;;5.51;74.71;99338.19;5058210;28;20402;-60
2021/12/10 03:22:38;;;;;;;18.00;6.97;;;;;;;5.29;75.33;99338.00;5051378;28;20771;-59
2021/12/10 03:25:06;;;;;;;18.00;6.80;;;;;;;5.39;75.54;99328.63;5038164;28;20161;-60
2021/12/10 03:27:31;;;;;;;17.52;6.75;;;;;;;5.48;75.33;99327.84;5028594;28;20539;-59
2021/12/10 03:29:57;;;;;;;17.77;7.55;;;;;;;5.33;75.83;99328.56;5055740;28;20891;-59
2021/12/10 03:32:25;;;;;;;16.98;7.13;;;;;;;5.40;75.54;99321.75;5053872;28;20039;-60
2021/12/10 03:34:51;;;;;;;16.73;6.63;;;;;;;5.44;75.34;99320.91;5053218;28;20044;-60
2021/12/10 03:37:18;;;;;;;18.48;7.00;;;;;;;5.47;74.86;99311.47;5048037;28;20549;-60
2021/12/10 03:39:45;;;;;;;16.83;6.85;;;;;;;5.34;75.44;99308.75;5063801;27;20044;-60
2021/12/10 03:42:11;;;;;;;16.13;7.18;;;;;;;5.44;75.30;99311.44;5057706;28;20039;-59
2021/12/10 03:44:36;;;;;;;14.52;6.72;;;;;;;5.26;75.83;99299.22;5047384;28;20105;-60
2021/12/10 03:47:05;;;;;;;17.00;6.70;;;;;;;5.34;75.79;99307.03;5051099;28;20074;-60
2021/12/10 03:49:30;;;;;;;13.45;6.63;;;;;;;5.41;75.43;99302.81;5043445;28;20582;-61
2021/12/10 03:51:55;;;;;;;17.42;6.90;;;;;;;5.29;75.83;99296.66;5032979;28;20056;-60
2021/12/10 03:54:21;;;;;;;16.08;6.65;;;;;;;5.38;75.60;99288.13;5055833;28;20048;-59
2021/12/10 03:56:48;;;;;;;15.75;6.70;;;;;;;5.11;76.93;99286.16;5050741;28;20589;-59
2021/12/10 03:59:16;;;;;;;16.40;6.88;;;;;;;5.19;77.03;99287.09;5070438;27;20378;-60
2021/12/10 04:01:44;;;;;;;18.00;6.93;;;;;;;5.30;76.60;99270.00;5047706;28;20032;-59
2021/12/10 04:04:16;;;;;;;15.25;6.50;;;;;;;5.32;76.45;99260.50;5054979;28;20044;-60
2021/12/10 04:06:41;;;;;;;15.05;6.53;;;;;;;5.37;76.32;99262.28;5035884;28;20424;-59
2021/12/10 04:09:07;;;;;;;18.70;6.68;;;;;;;5.29;76.69;99259.63;5055271;28;20719;-59
2021/12/10 04:11:33;;;;;;;15.88;5.65;;;;;;;5.15;76.63;99254.34;5055321;28;20111;-61
2021/12/10 04:13:58;;;;;;;17.33;6.45;;;;;;;5.30;76.60;99258.78;5033750;28;20056;-61
2021/12/10 04:16:27;;;;;;;14.98;6.13;;;;;;;5.22;76.42;99244.91;5057201;28;20044;-59
2021/12/10 04:18:55;;;;;;;14.63;6.05;;;;;;;5.31;76.39;99245.84;5061202;28;20674;-60
2021/12/10 04:21:21;;;;;;;16.40;6.13;;;;;;;5.21;76.23;99238.88;5055464;28;20709;-59
2021/12/10 04:23:47;;;;;;;12.77;5.68;;;;;;;5.08;76.95;99225.84;5049383;28;20067;-60
2021/12/10 04:26:15;;;;;;;11.25;5.57;;;;;;;5.20;76.50;99233.69;5051771;28;20036;-60
2021/12/10 04:28:41;;;;;;;12.70;5.75;;;;;;;5.26;76.33;99226.00;5056880;28;20632;-60
2021/12/10 04:31:06;;;;;;;15.05;5.35;;;;;;;5.15;76.81;99223.34;5052919;28;20053;-61
2021/12/10 04:33:31;;;;;;;12.40;5.68;;;;;;;5.36;76.32;99211.47;5030698;28;20131;-60
2021/12/10 04:35:59;;;;;;;12.18;5.25;;;;;;;5.31;76.20;99207.09;5053382;28;20129;-60
2021/12/10 04:38:27;;;;;;;12.88;5.25;;;;;;;5.12;76.34;99201.78;5054847;28;20111;-59
2021/12/10 04:40:56;;;;;;;16.02;5.70;;;;;;;5.05;76.60;99206.03;5047760;28;20062;-60
2021/12/10 04:43:23;;;;;;;11.70;5.38;;;;;;;5.07;76.42;99206.91;5045912;28;20052;-59
2021/12/10 04:45:51;;;;;;;16.48;5.53;;;;;;;5.28;75.98;99199.34;5034303;28;20044;-60
2021/12/10 04:48:17;;;;;;;16.92;5.32;;;;;;;5.42;75.85;99193.41;5056086;28;20059;-60
2021/12/10 04:50:42;;;;;;;12.93;4.72;;;;;;;5.41;75.38;99189.09;5049362;28;20036;-60
2021/12/10 04:53:09;;;;;;;11.43;4.82;;;;;;;5.29;76.12;99187.28;5051586;28;20526;-59
2021/12/10 04:55:35;;;;;;;13.80;5.20;;;;;;;5.29;75.77;99188.16;5035025;28;20047;-60
2021/12/10 04:58:01;;;;;;;9.63;4.90;;;;;;;5.26;76.57;99170.03;5049097;28;20039;-60
2021/12/10 05:00:32;;;;;;;12.80;4.88;;;;;;;5.44;75.71;99168.41;5054686;28;20032;-60
2021/12/10 05:03:00;;;;;;;10.70;4.65;;;;;;;5.44;75.25;99155.50;5049452;28;20546;-60
2021/12/10 05:05:26;;;;;;;9.90;4.47;;;;;;;5.50;75.44;99164.16;5044673;28;20331;-59
2021/12/10 05:07:52;;;;;;;11.48;4.50;;;;;;;5.24;75.46;99160.56;5052911;28;20048;-59
2021/12/10 05:10:18;;;;;;;9.40;4.10;;;;;;;5.23;75.55;99156.25;5056999;28;20041;-60
2021/12/10 05:12:43;;;;;;;11.85;4.30;;;;;;;5.30;75.56;99152.84;5055961;28;20043;-59
2021/12/10 05:15:14;;;;;;;9.80;3.92;;;;;;;5.36;75.48;99158.06;5049455;28;20040;-60
2021/12/10 05:17:40;;;;;;;12.60;4.10;;;;;;;5.32;75.20;99153.69;5048570;28;20483;-60
2021/12/10 05:20:14;;;;;;;9.23;3.65;;;;;;;5.21;75.61;99155.34;5048542;28;20056;-60
2021/12/10 05:22:42;;;;;;;9.23;3.95;;;;;;;5.41;75.17;99147.75;5057366;28;20127;-59
2021/12/10 05:25:07;;;;;;;10.25;3.63;;;;;;;5.34;75.13;99149.41;5052897;28;20037;-60
2021/12/10 05:27:33;;;;;;;11.00;3.40;;;;;;;5.42;74.93;99149.47;5050405;28;20388;-60
2021/12/10 05:29:59;;;;;;;10.50;3.80;;;;;;;5.43;74.84;99148.63;5045164;28;20554;-60
2021/12/10 05:32:24;;;;;;;9.00;3.67;;;;;;;5.56;74.46;99140.06;5055768;28;20217;-60
2021/12/10 05:34:50;;;;;;;9.10;3.20;;;;;;;5.46;74.63;99136.56;5047551;28;20481;-59
2021/12/10 05:37:15;;;;;;;7.53;3.53;;;;;;;5.45;74.80;99133.97;5056426;28;20040;-60
2021/12/10 05:39:41;;;;;;;11.43;3.50;;;;;;;5.55;74.42;99140.94;5042624;28;20020;-60
2021/12/10 05:42:06;;;;;;;7.10;3.13;;;;;;;5.54;74.54;99134.91;5054581;28;20036;-59
2021/12/10 05:44:32;;;;;;;10.50;3.40;;;;;;;5.43;74.55;99143.47;5038941;28;20114;-59
2021/12/10 05:46:59;;;;;;;8.75;3.05;;;;;;;5.36;75.03;99145.13;5055897;28;20048;-60
2021/12/10 05:49:28;;;;;;;8.85;2.95;;;;;;;5.31;75.30;99137.34;5042253;28;20047;-61
2021/12/10 05:51:53;;;;;;;10.32;3.38;;;;;;;5.56;74.66;99133.19;5054315;28;20454;-61
2021/12/10 05:54:19;;;;;;;6.05;2.95;;;;;;;5.56;74.45;99133.19;5053199;28;20037;-60
2021/12/10 05:56:44;;;;;;;10.48;3.28;;;;;;;5.52;74.90;99133.16;5046588;28;20714;-60
2021/12/10 05:59:10;;;;;;;9.60;2.92;;;;;;;5.37;75.20;99140.84;5052367;28;20346;-60
2021/12/10 06:01:35;;;;;;;10.63;3.25;;;;;;;5.42;75.32;99144.31;5047872;28;20035;-60
2021/12/10 06:04:01;;;;;;;11.27;3.10;;;;;;;5.46;75.59;99131.41;5052156;28;20048;-60
2021/12/10 06:06:29;;;;;;;9.57;3.30;;;;;;;5.49;75.31;99136.56;5053670;28;20156;-60
2021/12/10 06:08:56;;;;;;;7.10;2.80;;;;;;;5.30;75.92;99143.38;5058434;28;20048;-59
2021/12/10 06:11:23;;;;;;;10.25;2.92;;;;;;;5.48;75.72;99150.38;5036799;28;20032;-60
2021/12/10 06:13:49;;;;;;;10.40;2.78;;;;;;;5.19;76.15;99145.00;5048720;28;20805;-59
2021/12/10 06:16:15;;;;;;;8.55;2.95;;;;;;;5.33;75.47;99152.84;5051164;28;20066;-59
2021/12/10 06:18:40;;;;;;;7.18;2.85;;;;;;;5.54;75.19;99145.25;5051381;28;20772;-60
2021/12/10 06:21:06;;;;;;;11.02;3.03;;;;;;;5.44;75.43;99147.75;5053127;28;20078;-60
2021/12/10 06:23:32;;;;;;;9.70;3.00;;;;;;;5.68;74.83;99148.75;5045016;28;20050;-59
2021/12/10 06:25:58;;;;;;;7.95;3.20;;;;;;;5.59;74.92;99146.13;5053906;28;20048;-61
2021/12/10 06:28:23;;;;;;;7.78;2.75;;;;;;;5.60;74.66;99150.47;5050770;28;20044;-59
2021/12/10 06:30:50;;;;;;;11.52;3.00;;;;;;;5.53;74.70;99142.66;5039317;28;20040;-60
2021/12/10 06:33:18;;;;;;;9.20;2.83;;;;;;;5.47;75.11;99153.81;5057175;28;20035;-61
2021/12/10 06:35:46;;;;;;;6.90;2.47;;;;;;;5.53;74.47;99142.66;5033111;28;20118;-61
2021/12/10 06:38:12;;;;;;;10.95;2.70;;;;;;;5.42;74.78;99158.09;5049103;28;20142;-60
2021/12/10 06:40:39;;;;;;;8.70;2.70;;;;;;;5.53;74.84;99147.81;5038899;28;20115;-60
2021/12/10 06:43:05;;;;;;;7.25;2.30;;;;;;;5.58;74.74;99144.41;5055283;28;20071;-60
2021/12/10 06:45:32;;;;;;;7.25;2.60;;;;;;;5.63;74.44;99150.47;5049265;28;20032;-60
2021/12/10 06:48:03;;;;;;;9.70;2.80;;;;;;;5.60;74.98;99145.28;5053297;28;20071;-60
2021/12/10 06:50:33;;;;;;;7.30;2.90;;;;;;;5.71;74.70;99143.63;5055490;28;20040;-60
2021/12/10 06:52:58;;;;;;;10.48;2.92;;;;;;;5.27;75.67;99156.25;5057592;28;20546;-59
2021/12/10 06:55:25;;;;;;;10.77;2.92;;;;;;;5.59;75.23;99158.19;5055924;28;20325;-59
2021/12/10 06:57:50;;;;;;;8.98;2.90;;;;;;;5.55;75.27;99159.88;5051263;28;20493;-59
2021/12/10 07:00:33;;;;;;;9.82;3.20;;;;;;;5.53;75.82;99169.38;5059054;28;20082;-60
2021/12/10 07:02:59;;;;;;;11.18;3.40;;;;;;;5.54;75.24;99165.06;5053050;28;20047;-60
2021/12/10 07:05:25;;;;;;;7.28;2.97;;;;;;;5.48;75.58;99170.19;5038143;28;20047;-60
2021/12/10 07:07:51;;;;;;;12.02;3.50;;;;;;;5.58;75.60;99156.47;5032450;28;20089;-60
2021/12/10 07:10:17;;;;;;;9.57;3.28;;;;;;;5.57;75.53;99159.91;5056291;28;20040;-60
2021/12/10 07:12:43;;;;;;;8.50;3.22;;;;;;;5.43;75.74;99162.38;5051941;28;20067;-59
2021/12/10 07:15:10;;;;;;;8.70;3.38;;;;;;;5.58;75.17;99156.47;5062306;28;20876;-60
2021/12/10 07:17:39;;;;;;;9.52;3.60;;;;;;;5.60;75.21;99167.69;5048268;28;20689;-60
2021/12/10 07:20:08;;;;;;;10.40;3.33;;;;;;;5.59;75.46;99173.69;5052210;28;20067;-60
2021/12/10 07:22:33;;;;;;;8.45;3.13;;;;;;;5.63;75.24;99173.72;5066908;27;20100;-60
2021/12/10 07:24:59;;;;;;;10.73;3.40;;;;;;;5.59;75.33;99171.97;5052971;28;20123;-60
2021/12/10 07:27:24;;;;;;;14.43;3.70;;;;;;;5.61;75.47;99175.41;5048807;28;20036;-60
2021/12/10 07:29:50;;;;;;;11.07;3.70;;;;;;;5.64;74.84;99180.63;5018283;28;20048;-59
2021/12/10 07:32:15;;;;;;;8.85;3.08;;;;;;;5.54;75.48;99180.56;5056200;28;20402;-61
2021/12/10 07:34:41;;;;;;;8.63;3.17;;;;;;;5.46;75.03;99183.09;5056913;28;20049;-59
2021/12/10 07:37:09;;;;;;;7.93;3.10;;;;;;;5.64;74.81;99178.03;5054187;28;20101;-59
2021/12/10 07:39:35;;;;;;;10.40;3.50;;;;;;;5.66;74.80;99183.22;5048838;28;20435;-60
2021/12/10 07:42:01;;;;;;;10.55;3.38;;;;;;;5.54;74.92;99180.56;5043985;28;20127;-60
2021/12/10 07:44:27;;;;;;;9.13;3.22;;;;;;;5.59;74.59;99184.03;5056076;28;20036;-60
2021/12/10 07:46:52;;;;;;;8.98;3.33;;;;;;;5.61;74.78;99180.59;5040706;28;20047;-60
2021/12/10 07:49:27;;;;;;;8.13;3.03;;;;;;;5.52;75.20;99195.19;5037157;28;21033;-61
2021/12/10 07:51:52;;;;;;;11.98;3.90;;;;;;;5.47;75.41;99189.13;5057377;28;20052;-59
2021/12/10 07:54:18;;;;;;;8.48;3.60;;;;;;;5.36;75.73;99191.66;5056822;28;20043;-60
2021/12/10 07:56:44;;;;;;;10.90;4.10;;;;;;;5.49;75.27;99196.03;5059472;28;20044;-61
2021/12/10 07:59:10;;;;;;;14.07;4.10;;;;;;;5.44;75.72;99189.97;5049716;28;20047;-60
2021/12/10 08:01:35;;;;;;;9.43;3.78;;;;;;;5.40;75.82;99190.81;5048142;28;20049;-60
2021/12/10 08:04:02;;;;;;;8.05;4.05;;;;;;;5.37;76.12;99195.09;5042769;28;20101;-60
2021/12/10 08:06:29;;;;;;;10.02;4.43;;;;;;;5.11;76.53;99200.06;5047212;28;20043;-60
2021/12/10 08:08:55;;;;;;;8.48;4.30;;;;;;;5.30;75.94;99194.19;5053711;28;20507;-59
2021/12/10 08:11:22;;;;;;;12.57;4.15;;;;;;;5.25;76.04;99191.53;5047386;28;20068;-61
2021/12/10 08:13:48;;;;;;;16.70;4.53;;;;;;;5.38;76.20;99200.25;5049666;28;20045;-60
2021/12/10 08:16:15;;;;;;;11.20;4.18;;;;;;;5.35;76.51;99199.38;5052571;28;21478;-60
2021/12/10 08:18:40;;;;;;;10.65;4.50;;;;;;;5.44;76.09;99210.63;5040258;28;20470;-60
2021/12/10 08:21:06;;;;;;;13.20;4.68;;;;;;;5.53;76.04;99213.31;5057861;28;20078;-60
2021/12/10 08:23:32;;;;;;;11.82;4.15;;;;;;;5.44;76.46;99199.44;5042226;28;20044;-60
2021/12/10 08:25:58;;;;;;;12.88;4.53;;;;;;;5.52;75.96;99203.81;5060888;28;20032;-60
2021/12/10 08:28:25;;;;;;;15.80;4.53;;;;;;;5.41;76.83;99210.63;5028016;28;20078;-60
2021/12/10 08:30:53;;;;;;;13.30;4.40;;;;;;;5.54;76.22;99212.47;5060560;28;20047;-60
2021/12/10 08:33:20;;;;;;;11.13;4.75;;;;;;;5.56;75.76;99210.72;5045995;28;20615;-60
2021/12/10 08:35:50;;;;;;;12.73;4.57;;;;;;;5.53;76.04;99209.84;5033645;28;20162;-60
2021/12/10 08:38:15;;;;;;;12.23;4.63;;;;;;;5.59;76.01;99210.75;5052211;28;20047;-60
2021/12/10 08:40:47;;;;;;;9.32;4.28;;;;;;;5.55;76.19;99213.31;5042181;28;20472;-61
2021/12/10 08:43:14;;;;;;;12.35;4.85;;;;;;;5.48;76.04;99220.16;5049927;28;20048;-60
2021/12/10 08:45:40;;;;;;;12.65;4.60;;;;;;;5.45;76.32;99221.84;5046641;28;20804;-59
2021/12/10 08:48:07;;;;;;;13.07;4.57;;;;;;;5.51;75.77;99217.59;5054211;28;20449;-60
2021/12/10 08:50:33;;;;;;;15.50;4.95;;;;;;;5.59;75.51;99225.41;5064833;27;20040;-60
2021/12/10 08:53:05;;;;;;;12.65;4.55;;;;;;;5.62;75.93;99215.06;5036696;28;20853;-60
2021/12/10 08:55:33;;;;;;;11.40;4.57;;;;;;;5.70;75.57;99221.16;5052029;28;20044;-60
2021/12/10 08:57:58;;;;;;;12.10;4.75;;;;;;;5.68;75.56;99225.44;5044389;28;20110;-60
2021/12/10 09:00:24;;;;;;;13.95;4.68;;;;;;;5.71;75.72;99216.00;5034838;28;20048;-59
2021/12/10 09:02:51;;;;;;;9.88;4.13;;;;;;;5.66;75.62;99224.59;5046135;28;20461;-61
2021/12/10 09:05:17;;;;;;;11.85;4.80;;;;;;;5.83;75.35;99232.44;5053111;28;20043;-61
2021/12/10 09:07:44;;;;;;;11.98;4.70;;;;;;;5.90;74.98;99232.53;5045166;28;20500;-60
2021/12/10 09:10:12;;;;;;;11.75;4.72;;;;;;;5.85;75.12;99241.09;5053221;28;20399;-60
2021/12/10 09:12:37;;;;;;;14.85;4.70;;;;;;;5.81;75.68;99241.91;5048544;28;20032;-60
2021/12/10 09:15:06;;;;;;;11.65;4.32;;;;;;;5.80;75.15;99248.78;5050656;28;20548;-60
2021/12/10 09:17:32;;;;;;;12.02;4.68;;;;;;;5.85;75.17;99247.13;5044619;28;20040;-61
2021/12/10 09:20:00;;;;;;;11.57;4.60;;;;;;;5.92;75.31;99254.06;5056826;28;20051;-59
2021/12/10 09:22:27;;;;;;;10.00;4.97;;;;;;;5.83;75.22;99248.84;5050978;28;20091;-60
2021/12/10 09:24:54;;;;;;;12.25;5.30;;;;;;;5.80;75.49;99255.69;5054362;28;20557;-61
2021/12/10 09:27:21;;;;;;;13.00;5.43;;;;;;;5.87;75.24;99270.41;5048894;28;20040;-60
2021/12/10 09:29:48;;;;;;;12.93;4.80;;;;;;;5.93;75.33;99266.16;5047130;28;20044;-60
2021/12/10 09:32:16;;;;;;;13.80;4.80;;;;;;;5.95;75.50;99272.22;5051357;28;20036;-60
2021/12/10 09:34:42;;;;;;;10.68;5.07;;;;;;;5.84;75.27;99267.81;5052037;28;20097;-61
2021/12/10 09:37:09;;;;;;;15.85;5.07;;;;;;;5.81;75.28;99273.81;5055935;28;20044;-62
2021/12/10 09:39:35;;;;;;;12.98;5.00;;;;;;;5.82;75.28;99282.44;5029989;28;20126;-62
2021/12/10 09:42:03;;;;;;;10.00;4.90;;;;;;;5.89;75.08;99282.53;5051558;28;20048;-60
2021/12/10 09:44:28;;;;;;;11.32;5.00;;;;;;;5.93;75.24;99283.41;5049557;28;20445;-60
2021/12/10 09:46:55;;;;;;;10.00;4.80;;;;;;;5.94;75.10;99287.72;5052148;28;20032;-60
2021/12/10 09:49:25;;;;;;;14.93;5.13;;;;;;;5.84;75.17;99279.03;5046035;28;20048;-60
2021/12/10 09:52:02;;;;;;;12.68;5.00;;;;;;;5.91;74.96;99287.72;5052991;28;20044;-60
2021/12/10 09:54:29;;;;;;;11.32;4.68;;;;;;;5.94;74.72;99287.72;5047690;28;20259;-60
2021/12/10 09:57:01;;;;;;;14.13;5.25;;;;;;;5.84;74.44;99284.19;5046871;28;21296;-61
2021/12/10 09:59:27;;;;;;;18.63;5.10;;;;;;;6.03;74.47;99288.66;5046077;28;20159;-62
2021/12/10 10:01:54;;;;;;;14.13;5.47;;;;;;;6.02;74.19;99289.50;5039172;28;20048;-62
2021/12/10 10:04:23;;;;;;;15.57;5.60;;;;;;;6.09;74.35;99287.84;5031918;28;20051;-60
2021/12/10 10:06:52;;;;;;;16.13;5.80;;;;;;;6.24;74.27;99294.78;5063411;28;20356;-62
2021/12/10 10:09:20;;;;;;;15.45;5.90;;;;;;;6.19;74.18;99289.59;5051771;28;20044;-63
2021/12/10 10:11:46;;;;;;;12.65;5.70;;;;;;;6.04;74.03;99298.13;5031661;28;20340;-60
2021/12/10 10:14:12;;;;;;;14.98;5.85;;;;;;;6.08;73.94;99293.84;5056770;28;20537;-60
2021/12/10 10:16:43;;;;;;;16.60;6.50;;;;;;;6.03;74.23;99300.72;5049517;28;20044;-61
2021/12/10 10:19:09;;;;;;;12.48;5.80;;;;;;;5.85;74.39;99298.84;5035349;28;20155;-61
2021/12/10 10:21:44;;;;;;;16.65;6.45;;;;;;;5.97;74.56;99303.28;5031577;28;20958;-61
2021/12/10 10:24:11;;;;;;;18.73;7.10;;;;;;;6.03;73.72;99311.94;5051579;28;20056;-60
2021/12/10 10:26:43;;;;;;;13.18;6.65;;;;;;;6.04;73.75;99312.78;5043821;28;20245;-60
2021/12/10 10:29:12;;;;;;;17.30;6.70;;;;;;;5.98;74.13;99302.41;5052750;28;20179;-60
2021/12/10 10:31:42;;;;;;;15.05;5.93;;;;;;;6.07;73.84;99305.06;5048502;28;20166;-61
2021/12/10 10:34:09;;;;;;;14.77;5.90;;;;;;;5.82;75.17;99304.00;5052749;28;20048;-61
2021/12/10 10:36:35;;;;;;;19.85;6.10;;;;;;;5.95;74.66;99298.09;5054137;28;20127;-61
2021/12/10 10:39:09;;;;;;;15.00;6.25;;;;;;;6.00;74.82;99295.53;5053541;28;20086;-60
2021/12/10 10:41:36;;;;;;;14.70;6.15;;;;;;;6.06;75.01;99305.91;5061148;28;21021;-60
2021/12/10 10:44:03;;;;;;;10.75;5.88;;;;;;;6.14;74.66;99300.78;5057685;28;20121;-60
2021/12/10 10:46:29;;;;;;;19.42;6.75;;;;;;;6.13;74.59;99312.84;5042264;28;20094;-60
2021/12/10 10:48:55;;;;;;;14.70;7.32;;;;;;;6.14;74.81;99305.97;5053565;28;20040;-60
2021/12/10 10:51:31;;;;;;;14.00;6.65;;;;;;;6.23;74.79;99311.19;5047819;28;20124;-61
2021/12/10 10:54:00;;;;;;;16.13;6.82;;;;;;;6.22;74.63;99317.22;5052221;28;20051;-60
2021/12/10 10:56:33;;;;;;;15.40;6.60;;;;;;;6.17;74.55;99317.19;5058026;28;20452;-60
2021/12/10 10:59:02;;;;;;;13.93;6.15;;;;;;;6.19;74.32;99319.78;5048893;28;20076;-60
2021/12/10 11:01:39;;;;;;;12.70;6.35;;;;;;;6.25;74.32;99314.66;5046568;28;20037;-60
2021/12/10 11:04:14;;;;;;;15.60;6.90;;;;;;;6.33;74.37;99312.97;5052202;28;20048;-60
2021/12/10 11:06:43;;;;;;;12.73;6.82;;;;;;;6.19;74.76;99320.66;5056366;28;20047;-61
2021/12/10 11:09:21;;;;;;;17.80;6.95;;;;;;;6.23;74.67;99322.41;5049202;28;20044;-61
2021/12/10 11:11:49;;;;;;;20.83;7.95;;;;;;;6.14;74.74;99318.91;5054531;28;20449;-61
2021/12/10 11:14:27;;;;;;;16.98;7.88;;;;;;;6.17;74.77;99317.19;5054587;28;20051;-61
2021/12/10 11:17:01;;;;;;;17.05;8.38;;;;;;;6.22;74.50;99325.00;5057802;28;20047;-61
2021/12/10 11:19:28;;;;;;;17.30;7.53;;;;;;;6.25;74.70;99327.59;5045801;28;20097;-61
2021/12/10 11:22:00;;;;;;;16.85;7.63;;;;;;;6.22;74.92;99330.19;5056960;28;20052;-60
2021/12/10 11:24:34;;;;;;;15.93;7.95;;;;;;;6.19;74.50;99336.19;5050635;28;20051;-59
2021/12/10 11:27:03;;;;;;;19.60;8.15;;;;;;;6.26;74.96;99337.09;5049857;28;20424;-61
2021/12/10 11:29:51;;;;;;;15.65;8.20;;;;;;;6.46;74.68;99341.50;5063080;27;20573;-60
2021/12/10 11:32:17;;;;;;;21.92;8.05;;;;;;;6.50;74.51;99340.69;5056247;28;20044;-60
2021/12/10 11:34:46;;;;;;;21.08;8.18;;;;;;;6.55;74.42;99340.69;5054851;28;20081;-61
2021/12/10 11:37:13;;;;;;;19.02;8.20;;;;;;;6.69;74.26;99336.47;5048186;28;20047;-61
2021/12/10 11:39:48;;;;;;;17.80;7.63;;;;;;;6.31;73.59;99340.56;5052245;28;20660;-61
2021/12/10 11:42:32;;;;;;;;;;;;;;;6.27;74.38;99341.41;5053852;28;20039;-61
2021/12/10 11:45:16;;;;;;;17.25;8.02;;;;;;;6.39;73.71;99350.13;5049538;28;19955;-61
2021/12/10 11:47:49;;;;;;;17.25;7.78;;;;;;;6.58;73.16;99345.03;5043773;28;20139;-61